sensor_id;sensor_type;location;lat;lon;timestamp;temperature;humidity
2869;DHT22;1442;47.448;8.582;2024-03-08T00:00:04;3.50;99.90
2869;DHT22;1442;47.448;8.582;2024-03-08T00:02:35;3.50;99.90
2869;DHT22;1442;47.448;8.582;2024-03-08T00:05:04;3.50;99.90
2869;DHT22;1442;47.448;8.582;2024-03-08T00:07:31;3.40;99.90
2869;DHT22;1442;47.448;8.582;2024-03-08T00:09:58;3.30;99.90
2869;DHT22;1442;47.448;8.582;2024-03-08T00:12:24;3.30;99.90
2869;DHT22;1442;47.448;8.582;2024-03-08T00:14:52;3.30;99.90
2869;DHT22;1442;47.448;8.582;2024-03-08T00:17:20;3.30;99.90
2869;DHT22;1442;47.448;8.582;2024-03-08T00:19:48;3.20;99.90
2869;DHT22;1442;47.448;8.582;2024-03-08T00:22:16;3.20;99.90
2869;DHT22;1442;47.448;8.582;2024-03-08T00:24:43;3.20;99.90
2869;DHT22;1442;47.448;8.582;2024-03-08T00:27:10;3.20;99.90
2869;DHT22;1442;47.448;8.582;2024-03-08T00:29:37;3.20;99.90
2869;DHT22;1442;47.448;8.582;2024-03-08T00:32:05;3.20;99.90
2869;DHT22;1442;47.448;8.582;2024-03-08T00:34:35;3.10;99.90
2869;DHT22;1442;47.448;8.582;2024-03-08T00:37:02;3.10;99.90
2869;DHT22;1442;47.448;8.582;2024-03-08T00:39:30;3.00;99.90
2869;DHT22;1442;47.448;8.582;2024-03-08T00:41:56;3.00;99.90
2869;DHT22;1442;47.448;8.582;2024-03-08T00:44:23;3.00;99.90
2869;DHT22;1442;47.448;8.582;2024-03-08T00:46:50;3.00;99.90
2869;DHT22;1442;47.448;8.582;2024-03-08T00:49:17;3.00;99.90
2869;DHT22;1442;47.448;8.582;2024-03-08T00:51:43;2.90;99.90
2869;DHT22;1442;47.448;8.582;2024-03-08T00:54:10;2.80;99.90
2869;DHT22;1442;47.448;8.582;2024-03-08T00:56:38;2.80;99.90
2869;DHT22;1442;47.448;8.582;2024-03-08T00:59:06;2.80;99.90
2869;DHT22;1442;47.448;8.582;2024-03-08T01:01:33;2.80;99.90
2869;DHT22;1442;47.448;8.582;2024-03-08T01:04:00;2.80;99.90
2869;DHT22;1442;47.448;8.582;2024-03-08T01:06:27;2.80;99.90
2869;DHT22;1442;47.448;8.582;2024-03-08T01:08:54;2.80;99.90
2869;DHT22;1442;47.448;8.582;2024-03-08T01:11:20;2.80;99.90
2869;DHT22;1442;47.448;8.582;2024-03-08T01:13:48;2.80;99.90
2869;DHT22;1442;47.448;8.582;2024-03-08T01:16:15;2.80;99.90
2869;DHT22;1442;47.448;8.582;2024-03-08T01:18:43;2.80;99.90
2869;DHT22;1442;47.448;8.582;2024-03-08T01:21:10;2.70;99.90
2869;DHT22;1442;47.448;8.582;2024-03-08T01:23:36;2.70;99.90
2869;DHT22;1442;47.448;8.582;2024-03-08T01:26:03;2.70;99.90
2869;DHT22;1442;47.448;8.582;2024-03-08T01:28:30;2.60;99.90
2869;DHT22;1442;47.448;8.582;2024-03-08T01:30:58;2.60;99.90
2869;DHT22;1442;47.448;8.582;2024-03-08T01:33:26;2.50;99.90
2869;DHT22;1442;47.448;8.582;2024-03-08T01:35:53;2.50;99.90
2869;DHT22;1442;47.448;8.582;2024-03-08T01:38:20;2.60;99.90
2869;DHT22;1442;47.448;8.582;2024-03-08T01:40:47;2.50;99.90
2869;DHT22;1442;47.448;8.582;2024-03-08T01:43:20;2.50;99.90
2869;DHT22;1442;47.448;8.582;2024-03-08T01:45:47;2.50;99.90
2869;DHT22;1442;47.448;8.582;2024-03-08T01:48:17;2.50;99.90
2869;DHT22;1442;47.448;8.582;2024-03-08T01:50:44;2.30;99.90
2869;DHT22;1442;47.448;8.582;2024-03-08T01:53:12;2.40;99.90
2869;DHT22;1442;47.448;8.582;2024-03-08T01:55:40;2.40;99.90
2869;DHT22;1442;47.448;8.582;2024-03-08T01:58:10;2.30;99.90
2869;DHT22;1442;47.448;8.582;2024-03-08T02:00:38;2.30;99.90
2869;DHT22;1442;47.448;8.582;2024-03-08T02:03:07;2.30;99.90
2869;DHT22;1442;47.448;8.582;2024-03-08T02:05:35;2.20;99.90
2869;DHT22;1442;47.448;8.582;2024-03-08T02:08:04;2.20;99.90
2869;DHT22;1442;47.448;8.582;2024-03-08T02:10:32;2.20;99.90
2869;DHT22;1442;47.448;8.582;2024-03-08T02:12:59;2.20;99.90
2869;DHT22;1442;47.448;8.582;2024-03-08T02:15:27;2.20;99.90
2869;DHT22;1442;47.448;8.582;2024-03-08T02:18:13;2.10;99.90
2869;DHT22;1442;47.448;8.582;2024-03-08T02:20:41;2.20;99.90
2869;DHT22;1442;47.448;8.582;2024-03-08T02:23:08;2.20;99.90
2869;DHT22;1442;47.448;8.582;2024-03-08T02:25:35;2.10;99.90
2869;DHT22;1442;47.448;8.582;2024-03-08T02:28:03;2.10;99.90
2869;DHT22;1442;47.448;8.582;2024-03-08T02:30:29;2.10;99.90
2869;DHT22;1442;47.448;8.582;2024-03-08T02:32:56;2.20;99.90
2869;DHT22;1442;47.448;8.582;2024-03-08T02:35:23;2.20;99.90
2869;DHT22;1442;47.448;8.582;2024-03-08T02:37:51;2.20;99.90
2869;DHT22;1442;47.448;8.582;2024-03-08T02:40:17;2.10;99.90
2869;DHT22;1442;47.448;8.582;2024-03-08T02:42:44;2.20;99.90
2869;DHT22;1442;47.448;8.582;2024-03-08T02:45:11;2.20;99.90
2869;DHT22;1442;47.448;8.582;2024-03-08T02:47:38;2.10;99.90
2869;DHT22;1442;47.448;8.582;2024-03-08T02:50:05;2.20;99.90
2869;DHT22;1442;47.448;8.582;2024-03-08T02:52:33;2.20;99.90
2869;DHT22;1442;47.448;8.582;2024-03-08T02:55:02;2.20;99.90
2869;DHT22;1442;47.448;8.582;2024-03-08T02:57:30;2.30;99.90
2869;DHT22;1442;47.448;8.582;2024-03-08T02:59:57;2.30;99.90
2869;DHT22;1442;47.448;8.582;2024-03-08T03:02:25;2.40;99.90
2869;DHT22;1442;47.448;8.582;2024-03-08T03:04:52;2.40;99.90
2869;DHT22;1442;47.448;8.582;2024-03-08T03:07:19;2.50;99.90
2869;DHT22;1442;47.448;8.582;2024-03-08T03:09:45;2.50;99.90
2869;DHT22;1442;47.448;8.582;2024-03-08T03:12:13;2.70;99.90
2869;DHT22;1442;47.448;8.582;2024-03-08T03:14:40;2.70;99.90
2869;DHT22;1442;47.448;8.582;2024-03-08T03:17:07;2.80;99.90
2869;DHT22;1442;47.448;8.582;2024-03-08T03:19:35;2.80;99.90
2869;DHT22;1442;47.448;8.582;2024-03-08T03:22:02;2.90;99.90
2869;DHT22;1442;47.448;8.582;2024-03-08T03:24:32;2.90;99.90
2869;DHT22;1442;47.448;8.582;2024-03-08T03:26:59;3.00;99.90
2869;DHT22;1442;47.448;8.582;2024-03-08T03:29:27;3.00;99.90
2869;DHT22;1442;47.448;8.582;2024-03-08T03:31:55;3.10;99.90
2869;DHT22;1442;47.448;8.582;2024-03-08T03:34:22;3.20;99.90
2869;DHT22;1442;47.448;8.582;2024-03-08T03:36:49;3.20;99.90
2869;DHT22;1442;47.448;8.582;2024-03-08T03:39:15;3.30;99.90
2869;DHT22;1442;47.448;8.582;2024-03-08T03:41:45;3.30;99.90
2869;DHT22;1442;47.448;8.582;2024-03-08T03:44:13;3.40;99.90
2869;DHT22;1442;47.448;8.582;2024-03-08T03:46:43;3.40;99.90
2869;DHT22;1442;47.448;8.582;2024-03-08T03:49:10;3.40;99.90
2869;DHT22;1442;47.448;8.582;2024-03-08T03:51:37;3.50;99.90
2869;DHT22;1442;47.448;8.582;2024-03-08T03:54:04;3.50;99.90
2869;DHT22;1442;47.448;8.582;2024-03-08T03:56:31;3.50;99.90
2869;DHT22;1442;47.448;8.582;2024-03-08T03:58:58;3.60;99.90
2869;DHT22;1442;47.448;8.582;2024-03-08T04:01:24;3.70;99.90
2869;DHT22;1442;47.448;8.582;2024-03-08T04:03:52;3.60;99.90
2869;DHT22;1442;47.448;8.582;2024-03-08T04:06:19;3.70;99.90
2869;DHT22;1442;47.448;8.582;2024-03-08T04:08:46;3.70;99.90
2869;DHT22;1442;47.448;8.582;2024-03-08T04:11:12;3.70;99.90
2869;DHT22;1442;47.448;8.582;2024-03-08T04:13:41;3.80;99.90
2869;DHT22;1442;47.448;8.582;2024-03-08T04:16:08;3.80;99.90
2869;DHT22;1442;47.448;8.582;2024-03-08T04:18:37;3.80;99.90
2869;DHT22;1442;47.448;8.582;2024-03-08T04:21:05;3.80;99.90
2869;DHT22;1442;47.448;8.582;2024-03-08T04:23:33;3.80;99.90
2869;DHT22;1442;47.448;8.582;2024-03-08T04:26:01;3.90;99.90
2869;DHT22;1442;47.448;8.582;2024-03-08T04:28:27;3.90;99.90
2869;DHT22;1442;47.448;8.582;2024-03-08T04:30:54;3.90;99.90
2869;DHT22;1442;47.448;8.582;2024-03-08T04:33:21;3.90;99.90
2869;DHT22;1442;47.448;8.582;2024-03-08T04:35:49;3.90;99.90
2869;DHT22;1442;47.448;8.582;2024-03-08T04:38:17;3.90;99.90
2869;DHT22;1442;47.448;8.582;2024-03-08T04:40:43;3.90;99.90
2869;DHT22;1442;47.448;8.582;2024-03-08T04:43:10;3.90;99.90
2869;DHT22;1442;47.448;8.582;2024-03-08T04:45:37;3.90;99.90
2869;DHT22;1442;47.448;8.582;2024-03-08T04:48:05;3.90;99.90
2869;DHT22;1442;47.448;8.582;2024-03-08T04:50:33;3.90;99.90
2869;DHT22;1442;47.448;8.582;2024-03-08T04:53:00;4.00;99.90
2869;DHT22;1442;47.448;8.582;2024-03-08T04:55:30;4.00;99.90
2869;DHT22;1442;47.448;8.582;2024-03-08T04:57:56;4.00;99.90
2869;DHT22;1442;47.448;8.582;2024-03-08T05:00:23;3.90;99.90
2869;DHT22;1442;47.448;8.582;2024-03-08T05:02:50;3.90;99.90
2869;DHT22;1442;47.448;8.582;2024-03-08T05:05:18;3.90;99.90
2869;DHT22;1442;47.448;8.582;2024-03-08T05:07:45;3.90;99.90
2869;DHT22;1442;47.448;8.582;2024-03-08T05:10:12;3.90;99.90
2869;DHT22;1442;47.448;8.582;2024-03-08T05:12:44;3.90;99.90
2869;DHT22;1442;47.448;8.582;2024-03-08T05:15:11;3.90;99.90
2869;DHT22;1442;47.448;8.582;2024-03-08T05:17:37;3.90;99.90
2869;DHT22;1442;47.448;8.582;2024-03-08T05:20:06;3.90;99.90
2869;DHT22;1442;47.448;8.582;2024-03-08T05:22:37;3.90;99.90
2869;DHT22;1442;47.448;8.582;2024-03-08T05:25:06;3.90;99.90
2869;DHT22;1442;47.448;8.582;2024-03-08T05:27:34;3.90;99.90
2869;DHT22;1442;47.448;8.582;2024-03-08T05:30:02;3.90;99.90
2869;DHT22;1442;47.448;8.582;2024-03-08T05:32:29;3.80;99.90
2869;DHT22;1442;47.448;8.582;2024-03-08T05:34:56;3.90;99.90
2869;DHT22;1442;47.448;8.582;2024-03-08T05:37:23;3.90;99.90
2869;DHT22;1442;47.448;8.582;2024-03-08T05:39:49;3.90;99.90
2869;DHT22;1442;47.448;8.582;2024-03-08T05:42:16;3.90;99.90
2869;DHT22;1442;47.448;8.582;2024-03-08T05:44:43;3.80;99.90
2869;DHT22;1442;47.448;8.582;2024-03-08T05:47:11;3.80;99.90
2869;DHT22;1442;47.448;8.582;2024-03-08T05:49:38;3.80;99.90
2869;DHT22;1442;47.448;8.582;2024-03-08T05:52:04;3.80;99.90
2869;DHT22;1442;47.448;8.582;2024-03-08T05:54:31;3.90;99.90
2869;DHT22;1442;47.448;8.582;2024-03-08T05:56:58;3.90;99.90
2869;DHT22;1442;47.448;8.582;2024-03-08T05:59:25;4.00;99.90
2869;DHT22;1442;47.448;8.582;2024-03-08T06:01:52;4.00;99.90
2869;DHT22;1442;47.448;8.582;2024-03-08T06:04:21;4.10;99.90
2869;DHT22;1442;47.448;8.582;2024-03-08T06:06:48;4.10;99.90
2869;DHT22;1442;47.448;8.582;2024-03-08T06:09:17;4.10;99.90
2869;DHT22;1442;47.448;8.582;2024-03-08T06:11:48;4.10;99.90
2869;DHT22;1442;47.448;8.582;2024-03-08T06:14:15;4.10;99.90
2869;DHT22;1442;47.448;8.582;2024-03-08T06:16:44;4.10;99.90
2869;DHT22;1442;47.448;8.582;2024-03-08T06:19:10;4.10;99.90
2869;DHT22;1442;47.448;8.582;2024-03-08T06:21:38;4.10;99.90
2869;DHT22;1442;47.448;8.582;2024-03-08T06:24:06;4.10;99.90
2869;DHT22;1442;47.448;8.582;2024-03-08T06:26:33;4.10;99.90
2869;DHT22;1442;47.448;8.582;2024-03-08T06:29:00;4.10;99.90
2869;DHT22;1442;47.448;8.582;2024-03-08T06:31:26;4.10;99.90
2869;DHT22;1442;47.448;8.582;2024-03-08T06:33:53;4.10;99.90
2869;DHT22;1442;47.448;8.582;2024-03-08T06:36:20;4.10;99.90
2869;DHT22;1442;47.448;8.582;2024-03-08T06:38:49;4.10;99.90
2869;DHT22;1442;47.448;8.582;2024-03-08T06:41:16;4.20;99.90
2869;DHT22;1442;47.448;8.582;2024-03-08T06:43:43;4.10;99.90
2869;DHT22;1442;47.448;8.582;2024-03-08T06:46:09;4.20;99.90
2869;DHT22;1442;47.448;8.582;2024-03-08T06:48:38;4.10;99.90
2869;DHT22;1442;47.448;8.582;2024-03-08T06:51:05;4.10;99.90
2869;DHT22;1442;47.448;8.582;2024-03-08T06:53:32;4.10;99.90
2869;DHT22;1442;47.448;8.582;2024-03-08T06:56:01;4.10;99.90
2869;DHT22;1442;47.448;8.582;2024-03-08T06:58:28;4.20;99.90
2869;DHT22;1442;47.448;8.582;2024-03-08T07:00:55;4.20;99.90
2869;DHT22;1442;47.448;8.582;2024-03-08T07:03:24;4.20;99.90
2869;DHT22;1442;47.448;8.582;2024-03-08T07:05:51;4.20;99.90
2869;DHT22;1442;47.448;8.582;2024-03-08T07:08:18;4.30;99.90
2869;DHT22;1442;47.448;8.582;2024-03-08T07:10:47;4.30;99.90
2869;DHT22;1442;47.448;8.582;2024-03-08T07:13:16;4.30;99.90
2869;DHT22;1442;47.448;8.582;2024-03-08T07:15:43;4.30;99.90
2869;DHT22;1442;47.448;8.582;2024-03-08T07:18:10;4.40;99.90
2869;DHT22;1442;47.448;8.582;2024-03-08T07:20:40;4.40;99.90
2869;DHT22;1442;47.448;8.582;2024-03-08T07:23:06;4.40;99.90
2869;DHT22;1442;47.448;8.582;2024-03-08T07:25:34;4.40;99.90
2869;DHT22;1442;47.448;8.582;2024-03-08T07:28:01;4.40;99.90
2869;DHT22;1442;47.448;8.582;2024-03-08T07:30:29;4.40;99.90
2869;DHT22;1442;47.448;8.582;2024-03-08T07:33:15;4.40;99.90
2869;DHT22;1442;47.448;8.582;2024-03-08T07:35:42;4.40;99.90
2869;DHT22;1442;47.448;8.582;2024-03-08T07:38:09;4.50;99.90
2869;DHT22;1442;47.448;8.582;2024-03-08T07:40:37;4.40;99.90
2869;DHT22;1442;47.448;8.582;2024-03-08T07:43:06;4.50;99.90
2869;DHT22;1442;47.448;8.582;2024-03-08T07:45:34;4.40;99.90
2869;DHT22;1442;47.448;8.582;2024-03-08T07:48:02;4.40;99.90
2869;DHT22;1442;47.448;8.582;2024-03-08T07:50:29;4.40;99.90
2869;DHT22;1442;47.448;8.582;2024-03-08T07:52:58;4.40;99.90
2869;DHT22;1442;47.448;8.582;2024-03-08T07:55:25;4.40;99.90
2869;DHT22;1442;47.448;8.582;2024-03-08T07:57:52;4.50;99.90
2869;DHT22;1442;47.448;8.582;2024-03-08T08:00:18;4.50;99.90
2869;DHT22;1442;47.448;8.582;2024-03-08T08:02:46;4.50;99.90
2869;DHT22;1442;47.448;8.582;2024-03-08T08:05:15;4.60;99.90
2869;DHT22;1442;47.448;8.582;2024-03-08T08:07:44;4.70;99.90
2869;DHT22;1442;47.448;8.582;2024-03-08T08:10:12;4.70;99.90
2869;DHT22;1442;47.448;8.582;2024-03-08T08:12:44;4.80;99.90
2869;DHT22;1442;47.448;8.582;2024-03-08T08:15:10;4.80;99.90
2869;DHT22;1442;47.448;8.582;2024-03-08T08:17:38;4.80;99.90
2869;DHT22;1442;47.448;8.582;2024-03-08T08:20:07;4.90;99.90
2869;DHT22;1442;47.448;8.582;2024-03-08T08:22:34;4.90;99.90
2869;DHT22;1442;47.448;8.582;2024-03-08T08:25:00;5.00;99.90
2869;DHT22;1442;47.448;8.582;2024-03-08T08:27:28;5.00;99.90
2869;DHT22;1442;47.448;8.582;2024-03-08T08:29:55;5.00;99.90
2869;DHT22;1442;47.448;8.582;2024-03-08T08:32:22;5.00;99.90
2869;DHT22;1442;47.448;8.582;2024-03-08T08:34:49;5.10;99.90
2869;DHT22;1442;47.448;8.582;2024-03-08T08:37:17;5.10;99.90
2869;DHT22;1442;47.448;8.582;2024-03-08T08:39:43;5.10;99.90
2869;DHT22;1442;47.448;8.582;2024-03-08T08:42:10;5.10;99.90
2869;DHT22;1442;47.448;8.582;2024-03-08T08:44:38;5.10;99.90
2869;DHT22;1442;47.448;8.582;2024-03-08T08:47:05;5.20;99.90
2869;DHT22;1442;47.448;8.582;2024-03-08T08:49:32;5.20;99.90
2869;DHT22;1442;47.448;8.582;2024-03-08T08:51:59;5.20;99.90
2869;DHT22;1442;47.448;8.582;2024-03-08T08:54:27;5.20;99.90
2869;DHT22;1442;47.448;8.582;2024-03-08T08:56:53;5.10;99.90
2869;DHT22;1442;47.448;8.582;2024-03-08T08:59:20;5.20;99.90
2869;DHT22;1442;47.448;8.582;2024-03-08T09:01:48;5.10;99.90
2869;DHT22;1442;47.448;8.582;2024-03-08T09:04:15;5.10;99.90
2869;DHT22;1442;47.448;8.582;2024-03-08T09:06:42;5.10;99.90
2869;DHT22;1442;47.448;8.582;2024-03-08T09:09:10;5.00;99.90
2869;DHT22;1442;47.448;8.582;2024-03-08T09:11:40;5.10;99.90
2869;DHT22;1442;47.448;8.582;2024-03-08T09:14:07;5.10;99.90
2869;DHT22;1442;47.448;8.582;2024-03-08T09:16:34;5.10;99.90
2869;DHT22;1442;47.448;8.582;2024-03-08T09:19:02;5.20;99.90
2869;DHT22;1442;47.448;8.582;2024-03-08T09:21:29;5.20;99.90
2869;DHT22;1442;47.448;8.582;2024-03-08T09:23:56;5.30;99.90
2869;DHT22;1442;47.448;8.582;2024-03-08T09:26:24;5.40;99.90
2869;DHT22;1442;47.448;8.582;2024-03-08T09:28:52;5.40;99.90
2869;DHT22;1442;47.448;8.582;2024-03-08T09:31:20;5.50;99.90
2869;DHT22;1442;47.448;8.582;2024-03-08T09:33:46;5.40;99.90
2869;DHT22;1442;47.448;8.582;2024-03-08T09:36:13;5.40;99.90
2869;DHT22;1442;47.448;8.582;2024-03-08T09:38:40;5.40;99.90
2869;DHT22;1442;47.448;8.582;2024-03-08T09:41:07;5.30;99.90
2869;DHT22;1442;47.448;8.582;2024-03-08T09:43:35;5.30;99.90
2869;DHT22;1442;47.448;8.582;2024-03-08T09:46:04;5.30;99.90
2869;DHT22;1442;47.448;8.582;2024-03-08T09:48:32;5.30;99.90
2869;DHT22;1442;47.448;8.582;2024-03-08T09:51:00;5.30;99.90
2869;DHT22;1442;47.448;8.582;2024-03-08T09:53:26;5.30;99.90
2869;DHT22;1442;47.448;8.582;2024-03-08T09:55:53;5.30;99.90
2869;DHT22;1442;47.448;8.582;2024-03-08T09:58:21;5.20;99.90
2869;DHT22;1442;47.448;8.582;2024-03-08T10:01:02;5.20;99.90
2869;DHT22;1442;47.448;8.582;2024-03-08T10:03:31;5.30;99.90
2869;DHT22;1442;47.448;8.582;2024-03-08T10:05:58;5.40;99.90
2869;DHT22;1442;47.448;8.582;2024-03-08T10:08:26;5.50;99.90
2869;DHT22;1442;47.448;8.582;2024-03-08T10:10:52;5.50;99.90
2869;DHT22;1442;47.448;8.582;2024-03-08T10:13:19;5.50;99.90
2869;DHT22;1442;47.448;8.582;2024-03-08T10:15:47;5.60;99.90
2869;DHT22;1442;47.448;8.582;2024-03-08T10:18:14;5.60;99.90
2869;DHT22;1442;47.448;8.582;2024-03-08T10:20:42;5.70;99.90
2869;DHT22;1442;47.448;8.582;2024-03-08T10:23:09;5.80;99.90
2869;DHT22;1442;47.448;8.582;2024-03-08T10:25:36;5.80;99.90
2869;DHT22;1442;47.448;8.582;2024-03-08T10:28:03;5.90;99.90
2869;DHT22;1442;47.448;8.582;2024-03-08T10:30:31;5.90;99.90
2869;DHT22;1442;47.448;8.582;2024-03-08T10:32:58;6.00;99.90
2869;DHT22;1442;47.448;8.582;2024-03-08T10:35:24;6.10;99.90
2869;DHT22;1442;47.448;8.582;2024-03-08T10:37:54;6.20;99.90
2869;DHT22;1442;47.448;8.582;2024-03-08T10:40:25;6.30;99.90
2869;DHT22;1442;47.448;8.582;2024-03-08T10:42:54;6.30;99.90
2869;DHT22;1442;47.448;8.582;2024-03-08T10:45:30;6.40;99.90
2869;DHT22;1442;47.448;8.582;2024-03-08T10:48:09;6.30;99.90
2869;DHT22;1442;47.448;8.582;2024-03-08T10:50:38;6.30;99.90
2869;DHT22;1442;47.448;8.582;2024-03-08T10:53:06;6.30;99.90
2869;DHT22;1442;47.448;8.582;2024-03-08T10:55:37;6.20;99.90
2869;DHT22;1442;47.448;8.582;2024-03-08T10:58:06;6.20;99.90
2869;DHT22;1442;47.448;8.582;2024-03-08T11:00:33;6.20;99.90
2869;DHT22;1442;47.448;8.582;2024-03-08T11:03:00;6.20;99.90
2869;DHT22;1442;47.448;8.582;2024-03-08T11:05:35;6.20;99.90
2869;DHT22;1442;47.448;8.582;2024-03-08T11:08:08;6.20;99.90
2869;DHT22;1442;47.448;8.582;2024-03-08T11:10:47;6.30;99.90
2869;DHT22;1442;47.448;8.582;2024-03-08T11:13:34;6.30;99.90
2869;DHT22;1442;47.448;8.582;2024-03-08T11:16:01;6.30;99.90
2869;DHT22;1442;47.448;8.582;2024-03-08T11:18:32;6.30;99.90
2869;DHT22;1442;47.448;8.582;2024-03-08T11:21:02;6.30;99.90
2869;DHT22;1442;47.448;8.582;2024-03-08T11:23:32;6.30;99.90
2869;DHT22;1442;47.448;8.582;2024-03-08T11:25:59;6.30;99.90
2869;DHT22;1442;47.448;8.582;2024-03-08T11:28:25;6.30;99.90
2869;DHT22;1442;47.448;8.582;2024-03-08T11:31:23;6.30;99.90
2869;DHT22;1442;47.448;8.582;2024-03-08T11:33:51;6.20;99.90
2869;DHT22;1442;47.448;8.582;2024-03-08T11:36:21;6.20;99.90
2869;DHT22;1442;47.448;8.582;2024-03-08T11:38:50;6.20;99.90
2869;DHT22;1442;47.448;8.582;2024-03-08T11:41:18;6.20;99.90
2869;DHT22;1442;47.448;8.582;2024-03-08T11:43:46;6.20;99.90
2869;DHT22;1442;47.448;8.582;2024-03-08T11:46:14;6.20;99.90
2869;DHT22;1442;47.448;8.582;2024-03-08T11:48:42;6.20;99.90
2869;DHT22;1442;47.448;8.582;2024-03-08T11:51:09;6.10;99.90
2869;DHT22;1442;47.448;8.582;2024-03-08T11:53:37;6.10;99.90
2869;DHT22;1442;47.448;8.582;2024-03-08T11:56:10;6.00;99.90
2869;DHT22;1442;47.448;8.582;2024-03-08T11:58:37;6.00;99.90
2869;DHT22;1442;47.448;8.582;2024-03-08T12:01:06;6.10;99.90
2869;DHT22;1442;47.448;8.582;2024-03-08T12:03:34;6.20;99.90
2869;DHT22;1442;47.448;8.582;2024-03-08T12:06:01;6.20;99.90
2869;DHT22;1442;47.448;8.582;2024-03-08T12:08:30;6.20;99.90
2869;DHT22;1442;47.448;8.582;2024-03-08T12:10:57;6.20;99.90
2869;DHT22;1442;47.448;8.582;2024-03-08T12:13:27;6.30;99.90
2869;DHT22;1442;47.448;8.582;2024-03-08T12:15:56;6.30;99.90
2869;DHT22;1442;47.448;8.582;2024-03-08T12:18:24;6.40;99.90
2869;DHT22;1442;47.448;8.582;2024-03-08T12:20:51;6.40;99.90
2869;DHT22;1442;47.448;8.582;2024-03-08T12:23:18;6.40;99.90
2869;DHT22;1442;47.448;8.582;2024-03-08T12:25:45;6.40;99.90
2869;DHT22;1442;47.448;8.582;2024-03-08T12:28:13;6.40;99.90
2869;DHT22;1442;47.448;8.582;2024-03-08T12:30:46;6.40;99.90
2869;DHT22;1442;47.448;8.582;2024-03-08T12:33:14;6.40;99.90
2869;DHT22;1442;47.448;8.582;2024-03-08T12:35:41;6.30;99.90
2869;DHT22;1442;47.448;8.582;2024-03-08T12:38:08;6.30;99.90
2869;DHT22;1442;47.448;8.582;2024-03-08T12:40:35;6.40;99.90
2869;DHT22;1442;47.448;8.582;2024-03-08T12:43:06;6.40;99.90
2869;DHT22;1442;47.448;8.582;2024-03-08T12:45:33;6.40;99.90
2869;DHT22;1442;47.448;8.582;2024-03-08T12:48:01;6.40;99.90
2869;DHT22;1442;47.448;8.582;2024-03-08T12:50:28;6.50;99.90
2869;DHT22;1442;47.448;8.582;2024-03-08T12:52:55;6.40;99.90
2869;DHT22;1442;47.448;8.582;2024-03-08T12:55:22;6.40;99.90
2869;DHT22;1442;47.448;8.582;2024-03-08T12:57:49;6.30;99.90
2869;DHT22;1442;47.448;8.582;2024-03-08T13:00:18;6.30;99.90
2869;DHT22;1442;47.448;8.582;2024-03-08T13:02:45;6.30;99.90
2869;DHT22;1442;47.448;8.582;2024-03-08T13:05:13;6.40;99.90
2869;DHT22;1442;47.448;8.582;2024-03-08T13:07:41;6.40;99.90
2869;DHT22;1442;47.448;8.582;2024-03-08T13:10:11;6.40;99.90
2869;DHT22;1442;47.448;8.582;2024-03-08T13:12:40;6.30;99.90
2869;DHT22;1442;47.448;8.582;2024-03-08T13:15:07;6.30;99.90
2869;DHT22;1442;47.448;8.582;2024-03-08T13:17:37;6.20;99.90
2869;DHT22;1442;47.448;8.582;2024-03-08T13:20:06;6.30;99.90
2869;DHT22;1442;47.448;8.582;2024-03-08T13:22:35;6.40;99.90
2869;DHT22;1442;47.448;8.582;2024-03-08T13:25:02;6.40;99.90
2869;DHT22;1442;47.448;8.582;2024-03-08T13:27:30;6.40;99.90
2869;DHT22;1442;47.448;8.582;2024-03-08T13:29:57;6.40;99.90
2869;DHT22;1442;47.448;8.582;2024-03-08T13:32:24;6.40;99.90
2869;DHT22;1442;47.448;8.582;2024-03-08T13:34:52;6.40;99.90
2869;DHT22;1442;47.448;8.582;2024-03-08T13:37:19;6.50;99.90
2869;DHT22;1442;47.448;8.582;2024-03-08T13:39:47;6.50;99.90
2869;DHT22;1442;47.448;8.582;2024-03-08T13:42:14;6.50;99.90
2869;DHT22;1442;47.448;8.582;2024-03-08T13:44:45;6.50;99.90
2869;DHT22;1442;47.448;8.582;2024-03-08T13:47:13;6.40;99.90
2869;DHT22;1442;47.448;8.582;2024-03-08T13:49:40;6.50;99.90
2869;DHT22;1442;47.448;8.582;2024-03-08T13:52:06;6.40;99.90
2869;DHT22;1442;47.448;8.582;2024-03-08T13:54:34;6.50;99.90
2869;DHT22;1442;47.448;8.582;2024-03-08T13:57:03;6.60;99.90
2869;DHT22;1442;47.448;8.582;2024-03-08T13:59:30;6.60;99.90
2869;DHT22;1442;47.448;8.582;2024-03-08T14:01:56;6.60;99.90
2869;DHT22;1442;47.448;8.582;2024-03-08T14:04:23;6.60;99.90
2869;DHT22;1442;47.448;8.582;2024-03-08T14:06:51;6.70;99.90
2869;DHT22;1442;47.448;8.582;2024-03-08T14:09:22;6.70;99.90
2869;DHT22;1442;47.448;8.582;2024-03-08T14:11:50;6.70;99.90
2869;DHT22;1442;47.448;8.582;2024-03-08T14:14:20;6.70;99.90
2869;DHT22;1442;47.448;8.582;2024-03-08T14:16:48;6.60;99.90
2869;DHT22;1442;47.448;8.582;2024-03-08T14:19:18;6.70;99.90
2869;DHT22;1442;47.448;8.582;2024-03-08T14:21:45;6.70;99.90
2869;DHT22;1442;47.448;8.582;2024-03-08T14:24:13;6.70;99.90
2869;DHT22;1442;47.448;8.582;2024-03-08T14:26:40;6.70;99.90
2869;DHT22;1442;47.448;8.582;2024-03-08T14:29:07;6.80;99.90
2869;DHT22;1442;47.448;8.582;2024-03-08T14:31:37;6.90;99.90
2869;DHT22;1442;47.448;8.582;2024-03-08T14:34:03;7.00;99.90
2869;DHT22;1442;47.448;8.582;2024-03-08T14:36:30;7.00;99.90
2869;DHT22;1442;47.448;8.582;2024-03-08T14:38:57;7.00;99.90
2869;DHT22;1442;47.448;8.582;2024-03-08T14:41:24;7.10;99.90
2869;DHT22;1442;47.448;8.582;2024-03-08T14:43:52;7.10;99.90
2869;DHT22;1442;47.448;8.582;2024-03-08T14:46:19;7.10;99.90
2869;DHT22;1442;47.448;8.582;2024-03-08T14:48:47;7.10;99.90
2869;DHT22;1442;47.448;8.582;2024-03-08T14:51:14;7.20;99.90
2869;DHT22;1442;47.448;8.582;2024-03-08T14:53:41;7.20;99.90
2869;DHT22;1442;47.448;8.582;2024-03-08T14:56:08;7.20;99.90
2869;DHT22;1442;47.448;8.582;2024-03-08T14:58:35;7.20;99.90
2869;DHT22;1442;47.448;8.582;2024-03-08T15:01:03;7.20;99.90
2869;DHT22;1442;47.448;8.582;2024-03-08T15:03:35;7.30;99.90
2869;DHT22;1442;47.448;8.582;2024-03-08T15:06:04;7.20;99.90
2869;DHT22;1442;47.448;8.582;2024-03-08T15:08:34;7.30;99.90
2869;DHT22;1442;47.448;8.582;2024-03-08T15:11:01;7.30;99.90
2869;DHT22;1442;47.448;8.582;2024-03-08T15:13:27;7.30;99.90
2869;DHT22;1442;47.448;8.582;2024-03-08T15:16:05;7.30;99.90
2869;DHT22;1442;47.448;8.582;2024-03-08T15:18:33;7.40;99.90
2869;DHT22;1442;47.448;8.582;2024-03-08T15:21:03;7.50;99.90
2869;DHT22;1442;47.448;8.582;2024-03-08T15:23:33;7.50;99.90
2869;DHT22;1442;47.448;8.582;2024-03-08T15:26:00;7.60;99.90
2869;DHT22;1442;47.448;8.582;2024-03-08T15:28:27;7.60;99.90
2869;DHT22;1442;47.448;8.582;2024-03-08T15:31:01;7.70;99.90
2869;DHT22;1442;47.448;8.582;2024-03-08T15:33:32;7.70;99.90
2869;DHT22;1442;47.448;8.582;2024-03-08T15:35:59;7.80;99.90
2869;DHT22;1442;47.448;8.582;2024-03-08T15:38:30;7.90;99.90
2869;DHT22;1442;47.448;8.582;2024-03-08T15:40:57;7.90;99.90
2869;DHT22;1442;47.448;8.582;2024-03-08T15:43:24;7.90;99.90
2869;DHT22;1442;47.448;8.582;2024-03-08T15:45:51;7.90;99.90
2869;DHT22;1442;47.448;8.582;2024-03-08T15:48:20;7.90;99.90
2869;DHT22;1442;47.448;8.582;2024-03-08T15:50:46;7.90;99.90
2869;DHT22;1442;47.448;8.582;2024-03-08T15:53:13;8.00;99.90
2869;DHT22;1442;47.448;8.582;2024-03-08T15:55:42;8.00;99.90
2869;DHT22;1442;47.448;8.582;2024-03-08T15:58:10;8.00;99.90
2869;DHT22;1442;47.448;8.582;2024-03-08T16:00:36;8.00;99.90
2869;DHT22;1442;47.448;8.582;2024-03-08T16:03:11;8.00;99.90
2869;DHT22;1442;47.448;8.582;2024-03-08T16:05:39;8.00;99.90
2869;DHT22;1442;47.448;8.582;2024-03-08T16:08:07;8.00;99.90
2869;DHT22;1442;47.448;8.582;2024-03-08T16:10:41;8.00;99.90
2869;DHT22;1442;47.448;8.582;2024-03-08T16:13:11;8.10;99.90
2869;DHT22;1442;47.448;8.582;2024-03-08T16:15:38;8.10;99.90
2869;DHT22;1442;47.448;8.582;2024-03-08T16:18:06;8.00;99.90
2869;DHT22;1442;47.448;8.582;2024-03-08T16:20:34;8.00;99.90